Flight Track Log - Related Links

Times and Time Zones

All times are in EDT time to prevent confusion due to time zone crossing. See the SWA3206 flight status page for this flight to view local times or setup timezone preferences in your user account.

Time Position Orientation Groundspeed Altitude Reporting Facility
EDT Latitude Longitude Course Direction KTS MPH feet Rate Location/Type
Thu 04:03:36 PM 33.4167 -112.0833 248° West 201 231 3,400  Level Phoenix TRACON
Thu 04:04:36 PM 33.4000 -112.1500 253° West 226 260 6,100 2,250 Climbing Phoenix TRACON
Thu 04:05:36 PM 33.3500 -112.1167 151° Southeast 293 337 7,900 2,316 Climbing Phoenix TRACON
Thu 04:06:30 PM 33.3333 -112.0167 101° East 311 358 10,500 2,271 Climbing Phoenix TRACON
Thu 04:07:56 PM 33.3431 -111.8747 85° East 356 410 13,200 2,122 Climbing Albuquerque Center
Thu 04:08:00 PM 33.5145 -111.2364 82° East  Level FlightAware Approximate
Thu 04:08:57 PM 33.3806 -111.7589 69° East 373 429 15,700  Level Albuquerque Center
Thu 04:09:58 PM 33.4200 -111.6361 69° East 385 443 18,700 2,683 Climbing Albuquerque Center
Thu 04:11:00 PM 33.4572 -111.5189 69° East 391 450 21,200 2,195 Climbing Albuquerque Center
Thu 04:12:01 PM 33.4975 -111.3939 69° East 403 464 23,200 2,115 Climbing Albuquerque Center
Thu 04:13:02 PM 33.5197 -111.2286 81° East 424 488 25,500 1,869 Climbing Albuquerque Center
Thu 04:14:03 PM 33.5347 -111.0856 83° East 434 499 27,000 1,366 Climbing Albuquerque Center
Thu 04:15:05 PM 33.5511 -110.9350 83° East 452 520 28,300 1,317 Climbing Albuquerque Center
Thu 04:16:06 PM 33.5872 -110.7869 74° East 463 533 29,700 1,721 Climbing Albuquerque Center
Thu 04:17:07 PM 33.6308 -110.6411 70° East 466 536 31,800 1,951 Climbing Albuquerque Center
Thu 04:18:09 PM 33.6722 -110.4986 71° East 459 528 33,700 1,756 Climbing Albuquerque Center
Thu 04:19:10 PM 33.7119 -110.3572 71° East 451 519 35,400 1,525 Climbing Albuquerque Center
Thu 04:20:11 PM 33.7531 -110.2197 70° East 443 510 36,800 787 Climbing Albuquerque Center
Thu 04:21:12 PM 33.7919 -110.0831 71° East 437 503 37,000 98 Climbing Albuquerque Center
Thu 04:22:14 PM 33.8400 -109.9167 71° East 438 504 37,000  Level Albuquerque Center
Thu 04:23:15 PM 33.8781 -109.7850 71° East 437 503 37,000  Level Albuquerque Center
Thu 04:24:16 PM 33.9208 -109.6294 72° East 438 504 37,000  Level Albuquerque Center
Thu 04:25:17 PM 33.9586 -109.4983 71° East 435 501 37,000  Level Albuquerque Center
Thu 04:27:20 PM 34.1203 -109.2914 47° Northeast 418 481 37,000  Level Albuquerque Center
Thu 04:28:21 PM 34.2078 -109.2086 38° Northeast 417 480 37,000  Level Albuquerque Center
Thu 04:29:23 PM 34.3131 -109.1142 37° Northeast 421 484 37,000  Level Albuquerque Center
Thu 04:30:24 PM 34.4033 -109.0367 35° Northeast 418 481 37,000  Level Albuquerque Center
Thu 04:31:25 PM 34.4947 -108.9597 35° Northeast 417 480 37,000  Level Albuquerque Center
Thu 04:32:26 PM 34.6017 -108.8694 35° Northeast 418 481 37,000  Level Albuquerque Center
Thu 04:33:28 PM 34.6928 -108.7919 35° Northeast 418 481 37,000  Level Albuquerque Center
Thu 04:34:29 PM 34.8022 -108.7069 33° Northeast 418 481 37,000  Level Albuquerque Center
Thu 04:35:30 PM 34.8881 -108.6200 40° Northeast 420 483 37,000  Level Albuquerque Center
Thu 04:36:32 PM 34.9400 -108.4944 63° Northeast 429 494 37,000  Level Albuquerque Center
Thu 04:37:33 PM 34.9911 -108.3411 68° East 436 502 37,000  Level Albuquerque Center
Thu 04:38:34 PM 35.0336 -108.2106 68° East 436 502 37,000  Level Albuquerque Center
Thu 04:39:36 PM 35.0842 -108.0586 68° East 434 499 37,000  Level Albuquerque Center
Thu 04:40:37 PM 35.1269 -107.9294 68° East 431 496 37,000  Level Albuquerque Center
Thu 04:41:38 PM 35.1694 -107.8006 68° East 429 494 37,000  Level Albuquerque Center
Thu 04:42:40 PM 35.2183 -107.6489 68° East 430 495 37,000  Level Albuquerque Center
Thu 04:43:41 PM 35.2600 -107.5208 68° East 427 491 37,000  Level Albuquerque Center
Thu 04:44:42 PM 35.3019 -107.3958 68° East 431 496 37,000  Level Albuquerque Center
Thu 04:45:43 PM 35.3561 -107.2292 68° East 435 501 37,000  Level Albuquerque Center
Thu 04:46:45 PM 35.3661 -107.0933 85° East 448 516 37,000  Level Albuquerque Center
Thu 04:47:46 PM 35.3589 -106.9200 93° East 454 522 37,000  Level Albuquerque Center
Thu 04:48:47 PM 35.3539 -106.7753 92° East 448 516 37,000  Level Albuquerque Center
Thu 04:49:49 PM 35.3481 -106.6033 92° East 452 520 37,000  Level Albuquerque Center
Thu 04:50:50 PM 35.3417 -106.4575 93° East 451 519 37,000  Level Albuquerque Center
Thu 04:51:51 PM 35.3342 -106.3067 93° East 444 511 37,000  Level Albuquerque Center
Thu 04:52:52 PM 35.3250 -106.1583 94° East 441 507 37,000  Level Albuquerque Center
Thu 04:53:54 PM 35.3189 -106.0061 93° East 443 510 37,000  Level Albuquerque Center
Thu 04:54:55 PM 35.3164 -105.8556 91° East 441 507 37,000  Level Albuquerque Center
Thu 04:55:56 PM 35.3103 -105.7006 93° East 448 516 37,000  Level Albuquerque Center
Thu 04:56:57 PM 35.2989 -105.5469 95° East 450 518 37,000  Level Albuquerque Center
Thu 04:57:59 PM 35.3092 -105.3756 86° East 434 499 37,000  Level Albuquerque Center
Thu 04:59:00 PM 35.3558 -105.2453 66° East 415 478 37,000  Level Albuquerque Center
Thu 05:00:01 PM 35.4017 -105.1169 66° East 408 470 37,000  Level Albuquerque Center
Thu 05:01:02 PM 35.4506 -104.9847 66° East 417 480 37,000  Level Albuquerque Center
Thu 05:02:04 PM 35.5100 -104.8642 59° Northeast 409 471 37,000  Level Albuquerque Center
Thu 05:03:05 PM 35.5814 -104.7608 50° Northeast 396 456 37,000  Level Albuquerque Center
Thu 05:04:06 PM 35.6544 -104.6558 49° Northeast 396 456 37,000  Level Albuquerque Center
Thu 05:05:07 PM 35.7264 -104.5522 49° Northeast 394 453 37,000  Level Albuquerque Center
Thu 05:06:09 PM 35.7975 -104.4464 50° Northeast 395 455 37,000  Level Albuquerque Center
Thu 05:07:10 PM 35.8714 -104.3408 49° Northeast 398 458 37,000  Level Albuquerque Center
Thu 05:08:11 PM 35.9447 -104.2372 49° Northeast 397 457 37,000  Level Albuquerque Center
Thu 05:09:12 PM 36.0167 -104.1356 49° Northeast 392 451 37,000  Level Albuquerque Center
Thu 05:10:14 PM 36.0761 -104.0178 58° Northeast 402 463 37,000  Level Albuquerque Center
Thu 05:11:15 PM 36.1183 -103.8858 68° East 407 468 37,000  Level Albuquerque Center
Thu 05:12:16 PM 36.1628 -103.7553 67° East 408 470 37,000  Level Albuquerque Center
Thu 05:13:17 PM 36.2050 -103.6219 69° East 410 472 37,000  Level Albuquerque Center
Thu 05:14:18 PM 36.2478 -103.4864 69° East 415 478 37,000  Level Albuquerque Center
Thu 05:15:20 PM 36.2903 -103.3517 69° East 416 479 37,000  Level Albuquerque Center
Thu 05:16:21 PM 36.3331 -103.2131 69° East 422 486 37,000  Level Albuquerque Center
Thu 05:17:22 PM 36.3756 -103.0753 69° East 424 488 37,000  Level Albuquerque Center
Thu 05:18:23 PM 36.4183 -102.9392 69° East 419 482 37,000  Level Albuquerque Center
Thu 05:19:25 PM 36.4603 -102.8031 69° East 424 488 37,000  Level Albuquerque Center
Thu 05:20:26 PM 36.5019 -102.6686 69° East 420 483 37,000  Level Albuquerque Center
Thu 05:21:27 PM 36.5519 -102.5067 69° East 419 482 37,000  Level Albuquerque Center
Thu 05:22:28 PM 36.5933 -102.3706 69° East 421 484 37,000  Level Albuquerque Center
Thu 05:23:29 PM 36.6342 -102.2339 70° East 420 483 37,000  Level Albuquerque Center
Thu 05:24:31 PM 36.6736 -102.1031 69° East 420 483 37,000  Level Albuquerque Center
Thu 05:25:32 PM 36.7203 -101.9533 69° East 418 481 37,000  Level Albuquerque Center
Thu 05:26:33 PM 36.7586 -101.8222 70° East 419 482 37,000  Level Albuquerque Center
Thu 05:27:34 PM 36.7972 -101.6928 70° East 418 481 37,000  Level Albuquerque Center
Thu 05:28:16 PM 36.8292 -101.5831 70° East 419 482 37,000  Level Kansas City Center
Thu 05:29:18 PM 36.8681 -101.4539 69° East 419 482 37,000  Level Kansas City Center
Thu 05:30:19 PM 36.9114 -101.3033 70° East 415 478 37,000  Level Kansas City Center
Thu 05:31:20 PM 36.9494 -101.1753 70° East 413 475 37,000  Level Kansas City Center
Thu 05:32:22 PM 36.9869 -101.0486 70° East 410 472 37,000  Level Kansas City Center
Thu 05:33:23 PM 37.0303 -100.9008 70° East 408 470 37,000  Level Kansas City Center
Thu 05:34:24 PM 37.0661 -100.7744 70° East 406 467 37,000  Level Kansas City Center
Thu 05:35:26 PM 37.1089 -100.6272 70° East 405 466 37,000  Level Kansas City Center
Thu 05:36:27 PM 37.1450 -100.5014 70° East 403 464 37,000  Level Kansas City Center
Thu 05:37:28 PM 37.1867 -100.3547 70° East 402 463 37,000  Level Kansas City Center
Thu 05:38:30 PM 37.2225 -100.2286 70° East 402 463 37,000  Level Kansas City Center
Thu 05:39:31 PM 37.2578 -100.1025 71° East 403 464 37,000  Level Kansas City Center
Thu 05:40:32 PM 37.3003 -99.9550 70° East 404 465 37,000  Level Kansas City Center
Thu 05:41:33 PM 37.3342 -99.8286 71° East 403 464 37,000  Level Kansas City Center
Thu 05:42:35 PM 37.3753 -99.6811 71° East 402 463 37,000  Level Kansas City Center
Thu 05:43:36 PM 37.4106 -99.5539 71° East 403 464 37,000  Level Kansas City Center
Thu 05:44:37 PM 37.4500 -99.4133 70° East 405 466 37,000  Level Kansas City Center
Thu 05:45:38 PM 37.4869 -99.2800 71° East 406 467 37,000  Level Kansas City Center
Thu 05:46:39 PM 37.5228 -99.1464 71° East 404 465 37,000  Level Kansas City Center
Thu 05:47:41 PM 37.5633 -99.0156 69° East 403 464 37,000  Level Kansas City Center
Thu 05:48:42 PM 37.6125 -98.8922 63° Northeast 396 456 37,000  Level Kansas City Center
Thu 05:49:43 PM 37.6569 -98.7656 66° East 396 456 37,000  Level Kansas City Center
Thu 05:50:44 PM 37.7019 -98.6394 66° East 395 455 37,000  Level Kansas City Center
Thu 05:51:46 PM 37.7472 -98.5144 65° Northeast 392 451 37,000  Level Kansas City Center
Thu 05:52:47 PM 37.7942 -98.3900 64° Northeast 394 453 37,000  Level Kansas City Center
Thu 05:53:48 PM 37.8383 -98.2661 66° East 387 445 37,000  Level Kansas City Center
Thu 05:54:49 PM 37.8881 -98.1247 66° East 388 447 37,000  Level Kansas City Center
Thu 05:55:50 PM 37.9328 -98.0050 65° Northeast 381 438 37,000  Level Kansas City Center
Thu 05:56:51 PM 37.9781 -97.8811 65° Northeast 381 438 37,000  Level Kansas City Center
Thu 05:57:53 PM 38.0256 -97.7339 68° East 399 459 37,000  Level Kansas City Center
Thu 05:58:54 PM 38.0703 -97.6067 66° East 396 456 37,000  Level Kansas City Center
Thu 05:59:55 PM 38.1172 -97.4714 66° East 396 456 37,000  Level Kansas City Center
Thu 06:00:56 PM 38.1631 -97.3417 66° East 401 461 37,000  Level Kansas City Center
Thu 06:01:57 PM 38.2081 -97.2114 66° East 402 463 37,000  Level Kansas City Center
Thu 06:02:58 PM 38.2528 -97.0803 66° East 404 465 37,000  Level Kansas City Center
Thu 06:03:59 PM 38.2983 -96.9478 66° East 408 470 37,000  Level Kansas City Center
Thu 06:05:01 PM 38.3439 -96.8153 66° East 410 472 37,000 -146 Level Kansas City Center
Thu 06:06:02 PM 38.3892 -96.6808 67° East 412 474 36,700 -1,279 Descending Kansas City Center
Thu 06:07:03 PM 38.4328 -96.5492 67° East 406 467 34,400 -2,016 Descending Kansas City Center
Thu 06:08:04 PM 38.4756 -96.4258 66° East 388 447 32,600 -1,820 Descending Kansas City Center
Thu 06:09:05 PM 38.5197 -96.2897 67° East 373 429 30,700 -1,820 Descending Kansas City Center
Thu 06:10:06 PM 38.5592 -96.1719 67° East 377 434 28,900 -1,854 Descending Kansas City Center
Thu 06:11:08 PM 38.6047 -96.0361 67° East 374 430 26,900 -1,854 Descending Kansas City Center
Thu 06:12:09 PM 38.6414 -95.9225 68° East 365 420 25,100 -1,672 Descending Kansas City Center
Thu 06:13:10 PM 38.6772 -95.8133 67° East 355 409 23,500 -1,770 Descending Kansas City Center
Thu 06:14:11 PM 38.7194 -95.6850 67° East 352 405 21,500 -1,770 Descending Kansas City Center
Thu 06:15:12 PM 38.7564 -95.5753 67° East 351 404 19,900 -1,721 Descending Kansas City Center
Thu 06:16:13 PM 38.7964 -95.4497 68° East 342 394 18,000 -1,770 Descending Kansas City Center
Thu 06:17:14 PM 38.8486 -95.3600 53° Northeast 332 382 16,300 -1,623 Descending Kansas City Center
Thu 06:18:15 PM 38.9064 -95.2786 48° Northeast 323 372 14,700 -1,623 Descending Kansas City Center
Thu 06:19:16 PM 38.9711 -95.1881 47° Northeast 311 358 13,000 -1,672 Descending Kansas City Center
Thu 06:20:17 PM 39.0339 -95.1236 39° Northeast 306 352 11,300 -1,610 Descending Kansas City Center
Thu 06:21:19 PM 39.1064 -95.0586 35° Northeast 288 331 9,700 -1,610 Descending Kansas City Center
Thu 06:22:20 PM 39.1678 -95.0031 35° Northeast 284 327 8,000 -1,279 Descending Kansas City Center
Thu 06:23:21 PM 39.2289 -94.9500 34° Northeast 279 321 7,100 -885 Descending Kansas City Center
Thu 06:24:22 PM 39.2953 -94.8956 32° Northeast 258 297 6,200 -984 Descending Kansas City Center
Thu 06:25:23 PM 39.3492 -94.8497 33° Northeast 243 280 5,100 -984 Descending Kansas City Center
Thu 06:26:24 PM 39.4131 -94.8131 24° Northeast 223 257 4,200 -885 Descending Kansas City Center
Thu 06:27:25 PM 39.4333 -94.7683 60° Northeast 164 189 3,300 -787 Descending Kansas City Center
Thu 06:28:26 PM 39.4158 -94.7236 117° Southeast 143 165 2,600 -590 Descending Kansas City Center
Thu 06:29:27 PM 39.3761 -94.7058 161° South 136 157 2,100 -590 Descending Kansas City Center
Thu 06:30:28 PM 39.3400 -94.7158 192° South 137 158 1,400 -541 Descending Kansas City Center
Thu 06:31:29 PM 39.3053 -94.7261 193° South 137 158 1,000 -393 Descending Kansas City Center

Login

Don't have an account? Register now (free) for customized features, flight alerts, and more!